Terminal Aerodrome Forecast
Issued by NWS

Home | Current Version | Previous Version | Text Only | Print | Product List | Glossary On
Versions: 1 2 3 4 5 6 7 8 9 10 11 12 13 14 15 16 17 18 19 20 21 22 23 24 25
000
FTUS41 KPHI 191740
TAFMIV
TAF
KMIV 191740Z 1918/2018 32008KT P6SM BKN030
      TEMPO 1918/1920 BKN025
     FM192000 30005KT P6SM SCT030
     FM200500 VRB02KT 5SM BR FEW005 SCT015
     FM200900 VRB03KT P6SM BKN025
     FM201700 14005KT 5SM -RA BKN030 OVC100=

USA.gov is the U.S. government's official web portal to all federal, state and local government web resources and services.